sensor_id;sensor_type;location;lat;lon;timestamp;pressure;altitude;pressure_sealevel;temperature;humidity
61506;BME280;47366;51.916;4.574;2023-02-10T00:02:20;103706.19;;;0.76;83.60
61506;BME280;47366;51.916;4.574;2023-02-10T00:04:46;103711.59;;;0.79;83.44
61506;BME280;47366;51.916;4.574;2023-02-10T00:07:11;103708.94;;;0.79;83.49
61506;BME280;47366;51.916;4.574;2023-02-10T00:09:36;103716.94;;;0.79;83.42
61506;BME280;47366;51.916;4.574;2023-02-10T00:12:02;103716.03;;;0.79;83.55
61506;BME280;47366;51.916;4.574;2023-02-10T00:14:28;103718.72;;;0.80;83.44
61506;BME280;47366;51.916;4.574;2023-02-10T00:16:55;103712.47;;;0.80;83.74
61506;BME280;47366;51.916;4.574;2023-02-10T00:19:22;103707.97;;;0.77;83.75
61506;BME280;47366;51.916;4.574;2023-02-10T00:21:48;103707.19;;;0.81;83.55
61506;BME280;47366;51.916;4.574;2023-02-10T00:24:13;103699.09;;;0.78;82.89
61506;BME280;47366;51.916;4.574;2023-02-10T00:26:38;103703.69;;;0.84;83.27
61506;BME280;47366;51.916;4.574;2023-02-10T00:29:04;103705.47;;;0.83;83.20
61506;BME280;47366;51.916;4.574;2023-02-10T00:31:29;103705.47;;;0.83;83.14
61506;BME280;47366;51.916;4.574;2023-02-10T00:33:55;103702.81;;;0.85;83.83
61506;BME280;47366;51.916;4.574;2023-02-10T00:36:21;103696.66;;;0.86;84.07
61506;BME280;47366;51.916;4.574;2023-02-10T00:38:47;103696.59;;;0.84;83.82
61506;BME280;47366;51.916;4.574;2023-02-10T00:41:15;103697.53;;;0.87;83.51
61506;BME280;47366;51.916;4.574;2023-02-10T00:43:42;103681.53;;;0.87;83.62
61506;BME280;47366;51.916;4.574;2023-02-10T00:46:09;103679.72;;;0.85;83.70
61506;BME280;47366;51.916;4.574;2023-02-10T00:48:34;103690.44;;;0.87;83.41
61506;BME280;47366;51.916;4.574;2023-02-10T00:51:00;103677.91;;;0.84;83.19
61506;BME280;47366;51.916;4.574;2023-02-10T00:53:26;103690.44;;;0.87;83.06
61506;BME280;47366;51.916;4.574;2023-02-10T00:55:52;103694.00;;;0.88;83.39
61506;BME280;47366;51.916;4.574;2023-02-10T00:58:17;103679.75;;;0.87;83.30
61506;BME280;47366;51.916;4.574;2023-02-10T01:00:42;103682.44;;;0.87;83.21
61506;BME280;47366;51.916;4.574;2023-02-10T01:03:08;103690.53;;;0.92;84.25
61506;BME280;47366;51.916;4.574;2023-02-10T01:05:33;103705.72;;;0.94;83.92
61506;BME280;47366;51.916;4.574;2023-02-10T01:07:58;103694.09;;;0.91;83.54
61506;BME280;47366;51.916;4.574;2023-02-10T01:10:24;103692.34;;;0.93;83.84
61506;BME280;47366;51.916;4.574;2023-02-10T01:12:49;103702.13;;;0.92;83.71
61506;BME280;47366;51.916;4.574;2023-02-10T01:15:14;103705.84;;;0.99;84.62
61506;BME280;47366;51.916;4.574;2023-02-10T01:17:40;103692.34;;;0.93;84.18
61506;BME280;47366;51.916;4.574;2023-02-10T01:20:06;103693.25;;;0.93;83.41
61506;BME280;47366;51.916;4.574;2023-02-10T01:22:32;103698.50;;;0.90;83.54
61506;BME280;47366;51.916;4.574;2023-02-10T01:24:58;103703.84;;;0.90;83.46
61506;BME280;47366;51.916;4.574;2023-02-10T01:27:23;103702.13;;;0.92;84.05
61506;BME280;47366;51.916;4.574;2023-02-10T01:29:48;103697.78;;;0.96;84.59
61506;BME280;47366;51.916;4.574;2023-02-10T01:32:14;103711.06;;;0.94;84.10
61506;BME280;47366;51.916;4.574;2023-02-10T01:34:39;103714.50;;;0.90;83.78
61506;BME280;47366;51.916;4.574;2023-02-10T01:37:04;103706.44;;;0.87;83.42
61506;BME280;47366;51.916;4.574;2023-02-10T01:39:30;103715.34;;;0.88;83.53
61506;BME280;47366;51.916;4.574;2023-02-10T01:41:55;103712.59;;;0.84;83.59
61506;BME280;47366;51.916;4.574;2023-02-10T01:46:47;103731.34;;;0.88;83.72
61506;BME280;47366;51.916;4.574;2023-02-10T01:49:16;103717.06;;;0.85;83.69
61506;BME280;47366;51.916;4.574;2023-02-10T01:51:52;103723.31;;;0.86;83.80
61506;BME280;47366;51.916;4.574;2023-02-10T01:54:24;103726.19;;;0.94;84.55
61506;BME280;47366;51.916;4.574;2023-02-10T01:56:52;103726.13;;;0.91;84.02
61506;BME280;47366;51.916;4.574;2023-02-10T01:59:19;103718.91;;;0.88;83.98
61506;BME280;47366;51.916;4.574;2023-02-10T02:01:46;103727.72;;;0.85;83.83
61506;BME280;47366;51.916;4.574;2023-02-10T02:04:12;103729.56;;;0.87;84.27
61506;BME280;47366;51.916;4.574;2023-02-10T02:06:38;103728.66;;;0.86;84.29
61506;BME280;47366;51.916;4.574;2023-02-10T02:09:04;103731.28;;;0.84;83.80
61506;BME280;47366;51.916;4.574;2023-02-10T02:14:26;103732.19;;;0.85;83.84
61506;BME280;47366;51.916;4.574;2023-02-10T02:22:06;103724.28;;;0.90;84.84
61506;BME280;47366;51.916;4.574;2023-02-10T02:24:48;103712.53;;;0.81;85.20
61506;BME280;47366;51.916;4.574;2023-02-10T02:32:33;103712.59;;;0.84;84.90
61506;BME280;47366;51.916;4.574;2023-02-10T02:35:12;103715.44;;;0.91;85.99
61506;BME280;47366;51.916;4.574;2023-02-10T02:37:41;103720.84;;;0.95;87.53
61506;BME280;47366;51.916;4.574;2023-02-10T02:40:09;103724.63;;;1.03;88.29
61506;BME280;47366;51.916;4.574;2023-02-10T02:42:35;103729.19;;;1.08;87.54
61506;BME280;47366;51.916;4.574;2023-02-10T02:45:11;103736.31;;;1.09;87.44
61506;BME280;47366;51.916;4.574;2023-02-10T02:47:58;103735.38;;;1.05;87.00
61506;BME280;47366;51.916;4.574;2023-02-10T02:50:38;103738.94;;;1.07;86.75
61506;BME280;47366;51.916;4.574;2023-02-10T02:53:43;103749.63;;;1.07;86.74
61506;BME280;47366;51.916;4.574;2023-02-10T02:59:00;103750.34;;;1.00;87.07
61506;BME280;47366;51.916;4.574;2023-02-10T03:01:59;103758.47;;;1.04;87.13
61506;BME280;47366;51.916;4.574;2023-02-10T03:04:31;103747.66;;;1.00;85.95
61506;BME280;47366;51.916;4.574;2023-02-10T03:06:56;103755.72;;;1.01;86.82
61506;BME280;47366;51.916;4.574;2023-02-10T03:09:22;103753.09;;;1.03;87.05
61506;BME280;47366;51.916;4.574;2023-02-10T03:11:48;103753.94;;;1.02;86.66
61506;BME280;47366;51.916;4.574;2023-02-10T03:14:13;103751.28;;;1.02;86.46
61506;BME280;47366;51.916;4.574;2023-02-10T03:16:38;103747.59;;;0.97;85.93
61506;BME280;47366;51.916;4.574;2023-02-10T03:19:03;103745.81;;;0.96;85.56
61506;BME280;47366;51.916;4.574;2023-02-10T03:21:29;103753.72;;;0.93;85.08
61506;BME280;47366;51.916;4.574;2023-02-10T03:23:54;103762.53;;;0.90;85.69
61506;BME280;47366;51.916;4.574;2023-02-10T03:26:19;103761.66;;;0.90;85.73
61506;BME280;47366;51.916;4.574;2023-02-10T03:28:45;103759.88;;;0.90;85.98
61506;BME280;47366;51.916;4.574;2023-02-10T03:31:10;103754.47;;;0.87;85.87
61506;BME280;47366;51.916;4.574;2023-02-10T03:33:36;103761.56;;;0.87;85.25
61506;BME280;47366;51.916;4.574;2023-02-10T03:36:02;103753.50;;;0.83;85.25
61506;BME280;47366;51.916;4.574;2023-02-10T03:38:29;103762.41;;;0.84;85.05
61506;BME280;47366;51.916;4.574;2023-02-10T03:40:55;103751.75;;;0.85;85.92
61506;BME280;47366;51.916;4.574;2023-02-10T03:43:21;103761.56;;;0.87;85.98
61506;BME280;47366;51.916;4.574;2023-02-10T03:45:46;103766.91;;;0.87;86.41
61506;BME280;47366;51.916;4.574;2023-02-10T03:48:12;103759.75;;;0.85;86.35
61506;BME280;47366;51.916;4.574;2023-02-10T03:50:38;103765.09;;;0.85;86.01
61506;BME280;47366;51.916;4.574;2023-02-10T03:53:04;103755.25;;;0.83;86.12
61506;BME280;47366;51.916;4.574;2023-02-10T03:55:30;103749.84;;;0.80;85.33
61506;BME280;47366;51.916;4.574;2023-02-10T03:57:56;103755.25;;;0.83;85.20
61506;BME280;47366;51.916;4.574;2023-02-10T04:00:22;103743.69;;;0.82;85.61
61506;BME280;47366;51.916;4.574;2023-02-10T04:02:47;103750.84;;;0.83;85.33
61506;BME280;47366;51.916;4.574;2023-02-10T04:05:13;103744.56;;;0.83;85.24
61506;BME280;47366;51.916;4.574;2023-02-10T04:07:38;103744.44;;;0.78;85.25
61506;BME280;47366;51.916;4.574;2023-02-10T04:10:05;103740.88;;;0.76;84.99
61506;BME280;47366;51.916;4.574;2023-02-10T04:12:31;103746.28;;;0.79;85.02
61506;BME280;47366;51.916;4.574;2023-02-10T04:14:56;103748.00;;;0.77;85.89
61506;BME280;47366;51.916;4.574;2023-02-10T04:17:22;103745.31;;;0.77;85.70
61506;BME280;47366;51.916;4.574;2023-02-10T04:19:47;103755.22;;;0.81;86.55
61506;BME280;47366;51.916;4.574;2023-02-10T04:22:12;103753.41;;;0.80;86.16
61506;BME280;47366;51.916;4.574;2023-02-10T04:24:38;103764.06;;;0.80;86.05
61506;BME280;47366;51.916;4.574;2023-02-10T04:27:03;103764.97;;;0.81;85.94
61506;BME280;47366;51.916;4.574;2023-02-10T04:29:28;103762.28;;;0.79;86.36
61506;BME280;47366;51.916;4.574;2023-02-10T04:31:54;103756.13;;;0.82;86.66
61506;BME280;47366;51.916;4.574;2023-02-10T04:34:19;103763.25;;;0.83;87.66
61506;BME280;47366;51.916;4.574;2023-02-10T04:36:44;103765.03;;;0.82;87.30
61506;BME280;47366;51.916;4.574;2023-02-10T04:39:10;103770.47;;;0.87;87.78
61506;BME280;47366;51.916;4.574;2023-02-10T04:41:35;103768.69;;;0.88;88.73
61506;BME280;47366;51.916;4.574;2023-02-10T04:44:00;103758.94;;;0.88;88.17
61506;BME280;47366;51.916;4.574;2023-02-10T04:46:26;103766.13;;;0.91;89.15
61506;BME280;47366;51.916;4.574;2023-02-10T04:48:51;103766.13;;;0.91;88.42
61506;BME280;47366;51.916;4.574;2023-02-10T04:51:16;103764.31;;;0.90;88.49
61506;BME280;47366;51.916;4.574;2023-02-10T04:53:42;103758.03;;;0.88;88.94
61506;BME280;47366;51.916;4.574;2023-02-10T04:56:12;103753.53;;;0.85;89.53
61506;BME280;47366;51.916;4.574;2023-02-10T04:58:37;103755.38;;;0.88;89.14
61506;BME280;47366;51.916;4.574;2023-02-10T05:01:03;103758.91;;;0.87;89.04
61506;BME280;47366;51.916;4.574;2023-02-10T05:03:28;103761.56;;;0.87;88.88
61506;BME280;47366;51.916;4.574;2023-02-10T05:05:54;103756.25;;;0.87;88.94
61506;BME280;47366;51.916;4.574;2023-02-10T05:08:20;103758.84;;;0.83;89.84
61506;BME280;47366;51.916;4.574;2023-02-10T05:10:48;103748.06;;;0.80;90.15
61506;BME280;47366;51.916;4.574;2023-02-10T05:13:14;103743.59;;;0.79;89.76
61506;BME280;47366;51.916;4.574;2023-02-10T05:15:39;103750.66;;;0.77;90.05
61506;BME280;47366;51.916;4.574;2023-02-10T05:18:04;103756.00;;;0.77;89.53
61506;BME280;47366;51.916;4.574;2023-02-10T05:20:30;103763.13;;;0.78;89.64
61506;BME280;47366;51.916;4.574;2023-02-10T05:22:55;103770.28;;;0.79;89.73
61506;BME280;47366;51.916;4.574;2023-02-10T05:25:20;103754.09;;;0.73;90.13
61506;BME280;47366;51.916;4.574;2023-02-10T05:27:46;103741.66;;;0.72;90.90
61506;BME280;47366;51.916;4.574;2023-02-10T05:30:12;103750.50;;;0.71;89.83
61506;BME280;47366;51.916;4.574;2023-02-10T05:32:39;103754.94;;;0.71;90.03
61506;BME280;47366;51.916;4.574;2023-02-10T05:35:04;103756.66;;;0.69;89.77
61506;BME280;47366;51.916;4.574;2023-02-10T05:37:30;103759.28;;;0.67;89.86
61506;BME280;47366;51.916;4.574;2023-02-10T05:39:55;103766.38;;;0.67;89.19
61506;BME280;47366;51.916;4.574;2023-02-10T05:42:20;103773.47;;;0.65;89.34
61506;BME280;47366;51.916;4.574;2023-02-10T05:44:46;103770.69;;;0.61;90.75
61506;BME280;47366;51.916;4.574;2023-02-10T05:47:11;103759.00;;;0.56;91.32
61506;BME280;47366;51.916;4.574;2023-02-10T05:49:36;103756.28;;;0.55;91.25
61506;BME280;47366;51.916;4.574;2023-02-10T05:52:02;103756.31;;;0.56;91.83
61506;BME280;47366;51.916;4.574;2023-02-10T05:54:27;103750.94;;;0.55;90.75
61506;BME280;47366;51.916;4.574;2023-02-10T05:56:52;103743.75;;;0.51;91.44
61506;BME280;47366;51.916;4.574;2023-02-10T05:59:18;103755.22;;;0.48;92.18
61506;BME280;47366;51.916;4.574;2023-02-10T06:01:43;103746.28;;;0.46;91.42
61506;BME280;47366;51.916;4.574;2023-02-10T06:04:09;103754.34;;;0.49;91.86
61506;BME280;47366;51.916;4.574;2023-02-10T06:06:35;103741.06;;;0.51;91.09
61506;BME280;47366;51.916;4.574;2023-02-10T06:09:00;103745.38;;;0.46;91.30
61506;BME280;47366;51.916;4.574;2023-02-10T06:11:25;103755.25;;;0.50;91.24
61506;BME280;47366;51.916;4.574;2023-02-10T06:13:51;103764.19;;;0.52;91.57
61506;BME280;47366;51.916;4.574;2023-02-10T06:16:16;103773.91;;;0.50;90.33
61506;BME280;47366;51.916;4.574;2023-02-10T06:18:41;103776.59;;;0.50;90.56
61506;BME280;47366;51.916;4.574;2023-02-10T06:21:07;103773.09;;;0.52;90.16
61506;BME280;47366;51.916;4.574;2023-02-10T06:23:34;103771.44;;;0.56;89.90
61506;BME280;47366;51.916;4.574;2023-02-10T06:26:00;103775.03;;;0.58;89.97
61506;BME280;47366;51.916;4.574;2023-02-10T06:28:26;103775.88;;;0.55;89.89
61506;BME280;47366;51.916;4.574;2023-02-10T06:30:52;103784.00;;;0.60;90.09
61506;BME280;47366;51.916;4.574;2023-02-10T06:33:17;103792.00;;;0.60;89.93
61506;BME280;47366;51.916;4.574;2023-02-10T06:35:43;103788.31;;;0.56;89.75
61506;BME280;47366;51.916;4.574;2023-02-10T06:38:09;103802.47;;;0.54;90.13
61506;BME280;47366;51.916;4.574;2023-02-10T06:40:34;103791.75;;;0.52;90.08
61506;BME280;47366;51.916;4.574;2023-02-10T06:42:59;103800.75;;;0.56;90.09
61506;BME280;47366;51.916;4.574;2023-02-10T06:45:26;103804.31;;;0.56;89.94
61506;BME280;47366;51.916;4.574;2023-02-10T06:47:52;103807.91;;;0.57;89.56
61506;BME280;47366;51.916;4.574;2023-02-10T06:50:17;103810.47;;;0.54;89.73
61506;BME280;47366;51.916;4.574;2023-02-10T06:52:43;103809.59;;;0.55;89.72
61506;BME280;47366;51.916;4.574;2023-02-10T06:55:09;103804.28;;;0.55;89.63
61506;BME280;47366;51.916;4.574;2023-02-10T06:57:37;103800.72;;;0.54;89.25
61506;BME280;47366;51.916;4.574;2023-02-10T07:00:04;103798.03;;;0.53;88.99
61506;BME280;47366;51.916;4.574;2023-02-10T07:02:30;103791.75;;;0.52;89.65
61506;BME280;47366;51.916;4.574;2023-02-10T07:04:56;103783.75;;;0.51;89.22
61506;BME280;47366;51.916;4.574;2023-02-10T07:07:21;103776.59;;;0.50;89.15
61506;BME280;47366;51.916;4.574;2023-02-10T07:09:46;103782.84;;;0.50;89.57
61506;BME280;47366;51.916;4.574;2023-02-10T07:12:11;103779.16;;;0.47;90.45
61506;BME280;47366;51.916;4.574;2023-02-10T07:14:37;103780.88;;;0.45;91.92
61506;BME280;47366;51.916;4.574;2023-02-10T07:17:03;103788.75;;;0.40;92.90
61506;BME280;47366;51.916;4.574;2023-02-10T07:19:29;103794.16;;;0.41;92.89
61506;BME280;47366;51.916;4.574;2023-02-10T07:21:55;103795.03;;;0.42;92.52
61506;BME280;47366;51.916;4.574;2023-02-10T07:24:21;103795.94;;;0.42;91.96
61506;BME280;47366;51.916;4.574;2023-02-10T07:26:46;103806.66;;;0.44;91.86
61506;BME280;47366;51.916;4.574;2023-02-10T07:29:11;103817.38;;;0.46;91.86
61506;BME280;47366;51.916;4.574;2023-02-10T07:31:37;103826.28;;;0.48;91.48
61506;BME280;47366;51.916;4.574;2023-02-10T07:34:02;103820.88;;;0.45;91.75
61506;BME280;47366;51.916;4.574;2023-02-10T07:36:28;103825.41;;;0.47;90.98
61506;BME280;47366;51.916;4.574;2023-02-10T07:38:53;103838.78;;;0.49;90.68
61506;BME280;47366;51.916;4.574;2023-02-10T07:41:18;103844.19;;;0.52;91.23
61506;BME280;47366;51.916;4.574;2023-02-10T07:43:44;103834.34;;;0.49;91.19
61506;BME280;47366;51.916;4.574;2023-02-10T07:46:09;103833.47;;;0.49;92.12
61506;BME280;47366;51.916;4.574;2023-02-10T07:48:34;103836.94;;;0.46;92.20
61506;BME280;47366;51.916;4.574;2023-02-10T07:51:00;103832.50;;;0.47;91.54
61506;BME280;47366;51.916;4.574;2023-02-10T07:53:25;103817.47;;;0.49;90.69
61506;BME280;47366;51.916;4.574;2023-02-10T07:55:50;103818.34;;;0.49;91.87
61506;BME280;47366;51.916;4.574;2023-02-10T07:58:16;103822.78;;;0.49;92.64
61506;BME280;47366;51.916;4.574;2023-02-10T08:00:41;103835.31;;;0.51;93.18
61506;BME280;47366;51.916;4.574;2023-02-10T08:03:11;103838.88;;;0.52;93.68
61506;BME280;47366;51.916;4.574;2023-02-10T08:05:37;103843.31;;;0.51;93.71
61506;BME280;47366;51.916;4.574;2023-02-10T08:08:02;103846.88;;;0.52;94.57
61506;BME280;47366;51.916;4.574;2023-02-10T08:10:27;103849.53;;;0.52;94.98
61506;BME280;47366;51.916;4.574;2023-02-10T08:12:53;103853.22;;;0.55;93.24
61506;BME280;47366;51.916;4.574;2023-02-10T08:15:18;103852.47;;;0.61;92.29
61506;BME280;47366;51.916;4.574;2023-02-10T08:17:45;103856.97;;;0.63;91.78
61506;BME280;47366;51.916;4.574;2023-02-10T08:20:11;103844.53;;;0.64;92.38
61506;BME280;47366;51.916;4.574;2023-02-10T08:22:37;103845.41;;;0.63;92.11
61506;BME280;47366;51.916;4.574;2023-02-10T08:25:03;103848.16;;;0.66;91.84
61506;BME280;47366;51.916;4.574;2023-02-10T08:27:29;103850.81;;;0.66;92.87
61506;BME280;47366;51.916;4.574;2023-02-10T08:29:55;103847.34;;;0.69;92.33
61506;BME280;47366;51.916;4.574;2023-02-10T08:32:21;103846.53;;;0.71;92.38
61506;BME280;47366;51.916;4.574;2023-02-10T08:34:50;103855.47;;;0.73;92.00
61506;BME280;47366;51.916;4.574;2023-02-10T08:37:17;103851.09;;;0.75;91.69
61506;BME280;47366;51.916;4.574;2023-02-10T08:39:43;103856.63;;;0.83;92.10
61506;BME280;47366;51.916;4.574;2023-02-10T08:42:09;103849.63;;;0.87;92.39
61506;BME280;47366;51.916;4.574;2023-02-10T08:44:35;103854.28;;;0.95;92.29
61506;BME280;47366;51.916;4.574;2023-02-10T08:47:00;103851.63;;;0.95;92.33
61506;BME280;47366;51.916;4.574;2023-02-10T08:49:26;103845.44;;;0.96;91.44
61506;BME280;47366;51.916;4.574;2023-02-10T08:51:52;103840.16;;;0.98;92.83
61506;BME280;47366;51.916;4.574;2023-02-10T08:54:18;103844.63;;;0.99;92.58
61506;BME280;47366;51.916;4.574;2023-02-10T08:56:44;103835.66;;;0.97;92.61
61506;BME280;47366;51.916;4.574;2023-02-10T08:59:09;103840.25;;;1.02;92.58
61506;BME280;47366;51.916;4.574;2023-02-10T09:01:35;103851.03;;;1.05;91.89
61506;BME280;47366;51.916;4.574;2023-02-10T09:04:01;103855.66;;;1.13;92.19
61506;BME280;47366;51.916;4.574;2023-02-10T09:06:36;103854.84;;;1.15;93.27
61506;BME280;47366;51.916;4.574;2023-02-10T09:09:12;103842.69;;;1.26;92.53
61506;BME280;47366;51.916;4.574;2023-02-10T09:11:38;103849.19;;;1.38;92.31
61506;BME280;47366;51.916;4.574;2023-02-10T09:14:04;103850.94;;;1.37;91.75
61506;BME280;47366;51.916;4.574;2023-02-10T09:16:30;103845.50;;;1.33;91.85
61506;BME280;47366;51.916;4.574;2023-02-10T09:18:55;103845.56;;;1.36;91.73
61506;BME280;47366;51.916;4.574;2023-02-10T09:21:21;103851.13;;;1.45;92.34
61506;BME280;47366;51.916;4.574;2023-02-10T09:23:46;103854.03;;;1.54;91.87
61506;BME280;47366;51.916;4.574;2023-02-10T09:26:12;103860.38;;;1.59;90.75
61506;BME280;47366;51.916;4.574;2023-02-10T09:28:38;103869.34;;;1.61;93.10
61506;BME280;47366;51.916;4.574;2023-02-10T09:31:06;103866.84;;;1.69;92.28
61506;BME280;47366;51.916;4.574;2023-02-10T09:33:31;103867.06;;;1.77;92.25
61506;BME280;47366;51.916;4.574;2023-02-10T09:35:57;103879.66;;;1.82;92.09
61506;BME280;47366;51.916;4.574;2023-02-10T09:38:22;103872.72;;;1.90;91.55
61506;BME280;47366;51.916;4.574;2023-02-10T09:52:07;103868.44;;;2.38;92.17
61506;BME280;47366;51.916;4.574;2023-02-10T09:54:38;103870.25;;;2.39;92.33
61506;BME280;47366;51.916;4.574;2023-02-10T09:57:11;103871.19;;;2.41;91.03
61506;BME280;47366;51.916;4.574;2023-02-10T09:59:37;103880.50;;;2.60;91.60
61506;BME280;47366;51.916;4.574;2023-02-10T10:02:28;103866.53;;;2.75;91.47
61506;BME280;47366;51.916;4.574;2023-02-10T10:04:58;103863.00;;;2.78;91.14
61506;BME280;47366;51.916;4.574;2023-02-10T10:07:29;103856.75;;;2.77;91.63
61506;BME280;47366;51.916;4.574;2023-02-10T10:10:16;103859.72;;;2.91;91.16
61506;BME280;47366;51.916;4.574;2023-02-10T10:12:43;103864.34;;;3.03;91.38
61506;BME280;47366;51.916;4.574;2023-02-10T10:15:16;103865.69;;;3.25;91.29
61506;BME280;47366;51.916;4.574;2023-02-10T10:23:33;103854.63;;;3.59;90.04
61506;BME280;47366;51.916;4.574;2023-02-10T10:26:29;103861.88;;;3.65;89.61
61506;BME280;47366;51.916;4.574;2023-02-10T10:31:41;103845.03;;;3.72;89.63
61506;BME280;47366;51.916;4.574;2023-02-10T10:34:15;103840.84;;;3.93;88.69
61506;BME280;47366;51.916;4.574;2023-02-10T10:36:42;103836.72;;;4.15;87.91
61506;BME280;47366;51.916;4.574;2023-02-10T10:39:33;103837.78;;;4.31;87.78
61506;BME280;47366;51.916;4.574;2023-02-10T10:42:12;103846.63;;;4.23;87.33
61506;BME280;47366;51.916;4.574;2023-02-10T10:44:42;103838.56;;;4.20;87.17
61506;BME280;47366;51.916;4.574;2023-02-10T10:47:19;103839.53;;;4.29;87.26
61506;BME280;47366;51.916;4.574;2023-02-10T10:49:45;103832.31;;;4.20;87.37
61506;BME280;47366;51.916;4.574;2023-02-10T10:52:27;103844.72;;;4.13;87.83
61506;BME280;47366;51.916;4.574;2023-02-10T10:54:55;103826.09;;;4.25;88.19
61506;BME280;47366;51.916;4.574;2023-02-10T10:57:20;103828.00;;;4.36;87.44
61506;BME280;47366;51.916;4.574;2023-02-10T10:59:49;103833.63;;;4.56;87.41
61506;BME280;47366;51.916;4.574;2023-02-10T11:02:18;103836.56;;;4.79;86.50
61506;BME280;47366;51.916;4.574;2023-02-10T11:04:44;103832.25;;;4.92;86.10
61506;BME280;47366;51.916;4.574;2023-02-10T11:07:22;103828.00;;;5.15;85.75
61506;BME280;47366;51.916;4.574;2023-02-10T11:09:50;103825.41;;;5.29;85.52
61506;BME280;47366;51.916;4.574;2023-02-10T11:12:21;103819.34;;;5.53;84.64
61506;BME280;47366;51.916;4.574;2023-02-10T11:14:49;103800.56;;;5.62;84.20
61506;BME280;47366;51.916;4.574;2023-02-10T11:17:26;103807.06;;;5.92;84.29
61506;BME280;47366;51.916;4.574;2023-02-10T11:19:57;103804.47;;;6.09;83.08
61506;BME280;47366;51.916;4.574;2023-02-10T11:22:24;103805.31;;;5.97;82.69
61506;BME280;47366;51.916;4.574;2023-02-10T11:25:01;103812.34;;;5.75;83.05
61506;BME280;47366;51.916;4.574;2023-02-10T11:27:27;103812.22;;;5.61;83.80
61506;BME280;47366;51.916;4.574;2023-02-10T11:29:57;103805.03;;;5.57;84.19
61506;BME280;47366;51.916;4.574;2023-02-10T11:32:33;103805.81;;;5.45;84.47
61506;BME280;47366;51.916;4.574;2023-02-10T11:35:01;103796.03;;;5.52;84.55
61506;BME280;47366;51.916;4.574;2023-02-10T11:37:32;103789.78;;;5.58;85.09
61506;BME280;47366;51.916;4.574;2023-02-10T11:40:00;103796.16;;;5.70;84.79
61506;BME280;47366;51.916;4.574;2023-02-10T11:42:29;103791.84;;;5.94;84.46
61506;BME280;47366;51.916;4.574;2023-02-10T11:45:01;103791.13;;;6.27;83.69
61506;BME280;47366;51.916;4.574;2023-02-10T11:47:30;103792.97;;;6.44;82.92
61506;BME280;47366;51.916;4.574;2023-02-10T11:49:57;103785.84;;;6.76;82.23
61506;BME280;47366;51.916;4.574;2023-02-10T11:52:29;103776.88;;;7.00;81.69
61506;BME280;47366;51.916;4.574;2023-02-10T11:54:55;103770.59;;;7.17;80.89
61506;BME280;47366;51.916;4.574;2023-02-10T12:00:54;103776.88;;;7.54;79.56
61506;BME280;47366;51.916;4.574;2023-02-10T12:08:52;103753.44;;;7.81;78.39
61506;BME280;47366;51.916;4.574;2023-02-10T12:11:55;103747.13;;;7.86;77.24
61506;BME280;47366;51.916;4.574;2023-02-10T12:14:28;103747.09;;;7.99;76.24
61506;BME280;47366;51.916;4.574;2023-02-10T12:25:16;103751.50;;;8.17;75.47
61506;BME280;47366;51.916;4.574;2023-02-10T12:30:55;103758.59;;;8.42;76.40
61506;BME280;47366;51.916;4.574;2023-02-10T12:33:35;103747.78;;;8.41;76.12
61506;BME280;47366;51.916;4.574;2023-02-10T12:38:53;103752.19;;;8.60;76.07
61506;BME280;47366;51.916;4.574;2023-02-10T12:41:25;103743.19;;;8.63;76.74
61506;BME280;47366;51.916;4.574;2023-02-10T12:44:02;103736.81;;;8.68;76.34
61506;BME280;47366;51.916;4.574;2023-02-10T12:46:42;103738.59;;;8.69;76.83
61506;BME280;47366;51.916;4.574;2023-02-10T12:52:58;103746.56;;;8.91;76.28
61506;BME280;47366;51.916;4.574;2023-02-10T12:55:03;103753.88;;;8.77;76.00
61506;BME280;47366;51.916;4.574;2023-02-10T12:57:52;103753.00;;;8.71;76.46
61506;BME280;47366;51.916;4.574;2023-02-10T13:00:39;103752.88;;;8.90;76.74
61506;BME280;47366;51.916;4.574;2023-02-10T13:03:13;103749.22;;;8.99;76.67
61506;BME280;47366;51.916;4.574;2023-02-10T13:05:48;103740.31;;;8.84;76.86
61506;BME280;47366;51.916;4.574;2023-02-10T13:08:24;103733.16;;;8.77;77.49
61506;BME280;47366;51.916;4.574;2023-02-10T13:11:23;103728.69;;;8.71;78.06
61506;BME280;47366;51.916;4.574;2023-02-10T13:13:52;103717.94;;;8.62;78.03
61506;BME280;47366;51.916;4.574;2023-02-10T13:16:23;103718.06;;;8.45;78.61
61506;BME280;47366;51.916;4.574;2023-02-10T13:21:40;103701.16;;;8.00;80.26
61506;BME280;47366;51.916;4.574;2023-02-10T13:24:56;103711.09;;;8.01;80.68
61506;BME280;47366;51.916;4.574;2023-02-10T13:35:30;103700.38;;;7.74;81.64
61506;BME280;47366;51.916;4.574;2023-02-10T13:37:59;103697.72;;;7.71;81.61
61506;BME280;47366;51.916;4.574;2023-02-10T13:40:47;103693.25;;;7.63;81.75
61506;BME280;47366;51.916;4.574;2023-02-10T13:45:51;103694.13;;;7.62;82.61
61506;BME280;47366;51.916;4.574;2023-02-10T13:48:22;103691.41;;;7.69;81.86
61506;BME280;47366;51.916;4.574;2023-02-10T13:50:56;103686.94;;;7.68;81.98
61506;BME280;47366;51.916;4.574;2023-02-10T14:03:55;103683.38;;;7.56;82.30
61506;BME280;47366;51.916;4.574;2023-02-10T14:06:31;103682.50;;;7.51;82.57
61506;BME280;47366;51.916;4.574;2023-02-10T14:09:16;103688.78;;;7.53;82.87
61506;BME280;47366;51.916;4.574;2023-02-10T14:11:42;103681.59;;;7.54;82.51
61506;BME280;47366;51.916;4.574;2023-02-10T14:14:26;103675.28;;;7.50;82.83
61506;BME280;47366;51.916;4.574;2023-02-10T14:17:22;103676.22;;;7.46;82.75
61506;BME280;47366;51.916;4.574;2023-02-10T14:19:49;103676.19;;;7.48;83.04
61506;BME280;47366;51.916;4.574;2023-02-10T14:24:55;103663.66;;;7.33;83.45
61506;BME280;47366;51.916;4.574;2023-02-10T14:27:24;103660.06;;;7.26;83.56
61506;BME280;47366;51.916;4.574;2023-02-10T14:29:56;103661.00;;;7.19;83.63
61506;BME280;47366;51.916;4.574;2023-02-10T14:32:23;103662.78;;;7.21;83.71
61506;BME280;47366;51.916;4.574;2023-02-10T14:35:02;103666.38;;;7.22;84.08
61506;BME280;47366;51.916;4.574;2023-02-10T14:37:30;103661.91;;;7.22;83.84
61506;BME280;47366;51.916;4.574;2023-02-10T14:39:58;103652.00;;;7.12;84.15